Norton, Texas
Current Conditions -  °F | °C
As of 5:51 AM on Wednesday 28 Jan 2015 (Local Time) from KSJT Reporting Station
Clear Clear  
Wind Chill: 42°   Ceiling: Unl
Heat Index: 44°   Visibility: 10mi
Dew Point: 37°   Wind: 5mph
Humidity: 76%   Direction: 240°WSW
Pressure: 30.12"   Gusts: NA
Location:  31.87°N, 100.13°W
Report Text: KSJT 281151Z AUTO 24004KT 10SM CLR 07/03 A3012 RMK AO2 SLP191 T00670028 10089 20061 55004
Loading
Personal Weather Stations






























Interactive Weather Map New forecast layout! Learn more

10-Day Weather Forecast

Advertisements
Track Severe Weather on mobile